createdAt,value
2019-02-08T00:00:55.440Z,100297.98
2019-02-08T00:03:23.432Z,100306.64
2019-02-08T00:05:51.206Z,100304.33
2019-02-08T00:08:19.254Z,100307.04
2019-02-08T00:10:47.158Z,100301.35
2019-02-08T00:13:14.911Z,100300.52
2019-02-08T00:15:42.671Z,100301.23
2019-02-08T00:18:11.058Z,100305.89
2019-02-08T00:20:38.829Z,100299.36
2019-02-08T00:23:08.252Z,100312.38
2019-02-08T00:25:36.588Z,100309.88
2019-02-08T00:28:04.818Z,100312.05
2019-02-08T00:30:32.548Z,100319.03
2019-02-08T00:33:00.557Z,100316.33
2019-02-08T00:35:28.346Z,100319.38
2019-02-08T00:37:56.208Z,100311.17
2019-02-08T00:40:24.627Z,100318.99
2019-02-08T00:42:52.781Z,100313.22
2019-02-08T00:45:20.682Z,100326.04
2019-02-08T00:47:48.703Z,100316.33
2019-02-08T00:50:18.900Z,100323.83
2019-02-08T00:52:47.674Z,100320.98
2019-02-08T00:55:16.009Z,100332.17
2019-02-08T00:57:43.960Z,100334.98
2019-02-08T01:00:12.618Z,100344.78
2019-02-08T01:02:41.333Z,100340.44
2019-02-08T01:05:12.139Z,100340.25
2019-02-08T01:07:40.161Z,100346.27
2019-02-08T01:10:16.569Z,100343.45
2019-02-08T01:12:44.310Z,100344.78
2019-02-08T01:15:12.713Z,100347.94
2019-02-08T01:17:40.435Z,100347.94
2019-02-08T01:20:12.123Z,100339.32
2019-02-08T01:22:39.886Z,100343.49
2019-02-08T01:25:11.512Z,100353.13
2019-02-08T01:27:39.356Z,100358.47
2019-02-08T01:30:11.939Z,100357.27
2019-02-08T01:32:39.887Z,100346.78
2019-02-08T01:35:08.738Z,100357.62
2019-02-08T01:37:36.480Z,100364.14
2019-02-08T01:40:09.151Z,100355.02
2019-02-08T01:42:36.934Z,100355.31
2019-02-08T01:45:06.055Z,100367.50
2019-02-08T01:47:33.965Z,100373.84
2019-02-08T01:50:01.922Z,100380.50
2019-02-08T01:52:29.851Z,100377.19
2019-02-08T01:54:57.618Z,100380.70
2019-02-08T01:57:25.351Z,100387.86
2019-02-08T01:59:53.285Z,100377.89
2019-02-08T02:02:21.014Z,100378.05
2019-02-08T02:04:48.888Z,100385.71
2019-02-08T02:07:19.754Z,100383.36
2019-02-08T02:09:48.104Z,100388.00
2019-02-08T02:12:15.830Z,100387.01
2019-02-08T02:14:43.926Z,100389.50
2019-02-08T02:17:11.870Z,100388.83
2019-02-08T02:19:40.028Z,100382.20
2019-02-08T02:22:07.778Z,100374.67
2019-02-08T02:24:35.666Z,100371.03
2019-02-08T02:27:03.592Z,100375.14
2019-02-08T02:29:31.530Z,100372.84
2019-02-08T02:31:59.453Z,100368.70
2019-02-08T02:34:27.242Z,100366.05
2019-02-08T02:36:55.012Z,100358.89
2019-02-08T02:39:22.951Z,100362.37
2019-02-08T02:41:50.720Z,100359.88
2019-02-08T02:44:18.466Z,100367.03
2019-02-08T02:46:46.251Z,100363.55
2019-02-08T02:49:14.217Z,100365.18
2019-02-08T02:51:41.983Z,100369.54
2019-02-08T02:54:09.701Z,100381.55
2019-02-08T02:56:37.507Z,100388.33
2019-02-08T02:59:05.805Z,100388.51
2019-02-08T03:01:33.626Z,100391.69
2019-02-08T03:04:01.533Z,100399.67
2019-02-08T03:06:29.354Z,100392.19
2019-02-08T03:08:57.258Z,100394.33
2019-02-08T03:11:25.221Z,100396.50
2019-02-08T03:13:53.210Z,100399.83
2019-02-08T03:16:20.969Z,100396.81
2019-02-08T03:18:48.712Z,100391.68
2019-02-08T03:21:16.685Z,100393.84
2019-02-08T03:23:44.613Z,100393.03
2019-02-08T03:26:12.564Z,100396.02
2019-02-08T03:28:40.296Z,100393.16
2019-02-08T03:31:08.161Z,100390.34
2019-02-08T03:33:35.903Z,100399.16
2019-02-08T03:36:04.141Z,100406.64
2019-02-08T03:38:31.870Z,100409.50
2019-02-08T03:40:59.812Z,100413.63
2019-02-08T03:43:27.601Z,100412.80
2019-02-08T03:45:55.567Z,100418.47
2019-02-08T03:48:23.321Z,100418.13
2019-02-08T03:50:51.053Z,100411.30
2019-02-08T03:53:18.790Z,100409.95
2019-02-08T03:55:46.558Z,100413.98
2019-02-08T03:58:14.307Z,100411.16
2019-02-08T04:00:48.930Z,100409.50
2019-02-08T04:03:16.698Z,100396.02
2019-02-08T04:05:44.705Z,100408.66
2019-02-08T04:08:12.437Z,100402.32
2019-02-08T04:10:40.339Z,100405.98
2019-02-08T04:13:08.197Z,100400.84
2019-02-08T04:15:36.214Z,100410.95
2019-02-08T04:18:04.126Z,100409.80
2019-02-08T04:20:31.992Z,100421.09
2019-02-08T04:22:59.749Z,100420.92
2019-02-08T04:25:27.647Z,100421.75
2019-02-08T04:27:55.445Z,100425.58
2019-02-08T04:30:27.621Z,100426.28
2019-02-08T04:32:55.796Z,100435.62
2019-02-08T04:35:23.742Z,100429.45
2019-02-08T04:37:51.548Z,100428.13
2019-02-08T04:40:20.046Z,100428.62
2019-02-08T04:42:47.808Z,100427.13
2019-02-08T04:45:16.153Z,100429.44
2019-02-08T04:47:44.485Z,100433.25
2019-02-08T04:50:18.358Z,100425.58
2019-02-08T04:52:46.541Z,100432.94
2019-02-08T04:55:14.793Z,100434.26
2019-02-08T04:57:42.539Z,100429.93
2019-02-08T05:00:18.979Z,100437.42
2019-02-08T05:02:46.739Z,100434.06
2019-02-08T05:05:14.760Z,100438.23
2019-02-08T05:07:42.562Z,100437.91
2019-02-08T05:10:12.002Z,100435.42
2019-02-08T05:12:39.764Z,100434.45
2019-02-08T05:15:08.110Z,100434.11
2019-02-08T05:17:36.028Z,100425.44
2019-02-08T05:20:05.135Z,100422.26
2019-02-08T05:22:32.901Z,100429.73
2019-02-08T05:25:00.695Z,100430.16
2019-02-08T05:27:28.472Z,100432.16
2019-02-08T05:29:56.209Z,100432.22
2019-02-08T05:32:23.991Z,100431.21
2019-02-08T05:34:51.758Z,100428.25
2019-02-08T05:37:19.687Z,100421.71
2019-02-08T05:39:47.609Z,100423.33
2019-02-08T05:42:15.381Z,100424.87
2019-02-08T05:44:43.139Z,100425.53
2019-02-08T05:47:11.083Z,100420.06
2019-02-08T05:49:38.861Z,100418.91
2019-02-08T05:52:06.826Z,100425.39
2019-02-08T05:54:34.617Z,100417.89
2019-02-08T05:57:02.410Z,100413.19
2019-02-08T05:59:30.148Z,100421.68
2019-02-08T06:01:58.118Z,100423.85
2019-02-08T06:04:25.931Z,100421.56
2019-02-08T06:06:53.763Z,100419.22
2019-02-08T06:09:21.624Z,100418.55
2019-02-08T06:11:49.404Z,100420.37
2019-02-08T06:14:17.276Z,100416.09
2019-02-08T06:16:46.920Z,100421.59
2019-02-08T06:19:14.901Z,100427.92
2019-02-08T06:21:42.879Z,100434.73
2019-02-08T06:24:10.766Z,100430.94
2019-02-08T06:26:38.750Z,100426.42
2019-02-08T06:29:06.500Z,100433.43
2019-02-08T06:31:34.269Z,100432.73
2019-02-08T06:34:02.235Z,100423.58
2019-02-08T06:36:30.076Z,100436.25
2019-02-08T06:38:57.952Z,100431.92
2019-02-08T06:41:25.757Z,100435.06
2019-02-08T06:43:53.567Z,100435.03
2019-02-08T06:46:21.367Z,100438.71
2019-02-08T06:48:49.203Z,100434.38
2019-02-08T06:51:17.239Z,100429.56
2019-02-08T06:53:45.108Z,100426.17
2019-02-08T06:56:30.701Z,100426.20
2019-02-08T06:59:18.297Z,100422.90
2019-02-08T07:02:08.801Z,100424.34
2019-02-08T07:04:46.666Z,100429.36
2019-02-08T07:07:39.102Z,100431.84
2019-02-08T07:10:17.198Z,100441.32
2019-02-08T07:13:07.629Z,100451.48
2019-02-08T07:15:58.337Z,100453.14
2019-02-08T07:18:32.787Z,100453.45
2019-02-08T07:21:20.189Z,100452.19
2019-02-08T07:23:58.841Z,100451.28
2019-02-08T07:27:04.248Z,100452.72
2019-02-08T07:29:50.859Z,100446.22
2019-02-08T07:32:38.537Z,100449.91
2019-02-08T07:35:25.045Z,100457.55
2019-02-08T07:38:13.121Z,100462.05
2019-02-08T07:41:10.409Z,100450.03
2019-02-08T07:44:06.845Z,100456.12
2019-02-08T07:47:03.501Z,100458.48
2019-02-08T07:49:54.389Z,100456.48
2019-02-08T07:52:33.043Z,100463.37
2019-02-08T07:55:07.876Z,100458.45
2019-02-08T07:57:53.669Z,100456.00
2019-02-08T08:00:45.147Z,100448.84
2019-02-08T08:03:42.499Z,100454.97
2019-02-08T08:06:35.975Z,100461.42
2019-02-08T08:09:27.859Z,100463.23
2019-02-08T08:12:06.694Z,100459.47
2019-02-08T08:15:00.037Z,100466.69
2019-02-08T08:17:50.215Z,100460.36
2019-02-08T08:20:50.938Z,100473.03
2019-02-08T08:23:36.518Z,100470.66
2019-02-08T08:26:42.390Z,100478.09
2019-02-08T08:29:35.691Z,100469.81
2019-02-08T08:32:19.157Z,100473.35
2019-02-08T08:36:00.127Z,100478.36
2019-02-08T08:39:39.664Z,100475.88
2019-02-08T08:42:23.951Z,100473.72
2019-02-08T08:45:49.930Z,100482.05
2019-02-08T08:48:46.736Z,100472.36
2019-02-08T08:52:19.963Z,100469.03
2019-02-08T08:55:42.263Z,100462.17
2019-02-08T08:59:24.479Z,100463.28
2019-02-08T09:02:54.240Z,100450.25
2019-02-08T09:06:10.636Z,100450.30
2019-02-08T09:10:09.391Z,100444.25
2019-02-08T09:13:30.686Z,100440.97
2019-02-08T09:17:17.705Z,100432.30
2019-02-08T09:20:54.888Z,100430.59
2019-02-08T09:24:25.575Z,100423.91
2019-02-08T09:27:10.577Z,100413.30
2019-02-08T09:30:20.595Z,100410.92
2019-02-08T09:33:45.465Z,100419.93
2019-02-08T09:37:34.984Z,100401.23
2019-02-08T09:41:09.191Z,100401.03
2019-02-08T09:44:35.213Z,100414.95
2019-02-08T09:48:00.089Z,100411.32
2019-02-08T09:51:15.912Z,100396.92
2019-02-08T09:54:47.083Z,100397.21
2019-02-08T09:58:26.413Z,100391.70
2019-02-08T10:01:46.666Z,100397.27
2019-02-08T10:05:17.955Z,100391.46
2019-02-08T10:08:40.698Z,100409.55
2019-02-08T10:12:03.022Z,100395.35
2019-02-08T10:15:55.676Z,100404.14
2019-02-08T10:19:23.868Z,100401.52
2019-02-08T10:22:49.421Z,100393.52
2019-02-08T10:26:11.521Z,100396.34
2019-02-08T10:29:43.310Z,100397.69
2019-02-08T10:33:36.138Z,100382.94
2019-02-08T10:37:08.122Z,100386.16
2019-02-08T10:40:40.749Z,100377.11
2019-02-08T10:44:25.276Z,100376.35
2019-02-08T10:48:02.854Z,100380.31
2019-02-08T10:51:37.538Z,100367.55
2019-02-08T10:54:58.275Z,100378.36
2019-02-08T10:58:24.519Z,100370.98
2019-02-08T11:02:07.269Z,100370.02
2019-02-08T11:05:55.152Z,100368.66
2019-02-08T11:09:19.987Z,100363.27
2019-02-08T11:12:43.704Z,100369.83
2019-02-08T11:16:27.565Z,100370.34
2019-02-08T11:19:23.163Z,100377.25
2019-02-08T11:21:54.217Z,100371.02
2019-02-08T11:24:24.024Z,100356.45
2019-02-08T11:26:52.245Z,100370.34
2019-02-08T11:29:20.017Z,100376.86
2019-02-08T11:31:47.835Z,100357.47
2019-02-08T11:34:15.575Z,100358.09
2019-02-08T11:36:43.501Z,100369.15
2019-02-08T11:39:14.399Z,100359.58
2019-02-08T11:41:44.591Z,100353.34
2019-02-08T11:44:12.532Z,100351.94
2019-02-08T11:46:40.407Z,100339.17
2019-02-08T11:49:08.386Z,100356.09
2019-02-08T11:51:36.141Z,100355.42
2019-02-08T11:54:04.696Z,100358.77
2019-02-08T11:56:32.459Z,100349.53
2019-02-08T11:59:00.202Z,100356.13
2019-02-08T12:01:30.868Z,100343.79
2019-02-08T12:03:58.630Z,100364.48
2019-02-08T12:06:26.387Z,100361.16
2019-02-08T12:08:54.133Z,100372.30
2019-02-08T12:11:21.887Z,100361.94
2019-02-08T12:13:49.665Z,100374.36
2019-02-08T12:16:17.500Z,100364.90
2019-02-08T12:18:45.372Z,100358.89
2019-02-08T12:21:13.138Z,100352.72
2019-02-08T12:23:40.887Z,100356.98
2019-02-08T12:26:08.648Z,100360.44
2019-02-08T12:28:36.408Z,100341.61
2019-02-08T12:31:04.296Z,100350.72
2019-02-08T12:33:32.065Z,100347.64
2019-02-08T12:35:59.802Z,100341.67
2019-02-08T12:38:27.568Z,100336.47
2019-02-08T12:40:55.318Z,100340.22
2019-02-08T12:43:23.089Z,100334.17
2019-02-08T12:45:50.822Z,100336.98
2019-02-08T12:48:18.656Z,100326.34
2019-02-08T12:50:46.387Z,100325.73
2019-02-08T12:53:14.185Z,100322.05
2019-02-08T12:55:41.963Z,100324.63
2019-02-08T12:58:09.900Z,100316.63
2019-02-08T13:00:37.688Z,100320.11
2019-02-08T13:03:05.492Z,100324.98
2019-02-08T13:05:33.262Z,100317.56
2019-02-08T13:08:01.090Z,100308.95
2019-02-08T13:10:29.841Z,100312.69
2019-02-08T13:12:57.723Z,100302.78
2019-02-08T13:15:26.757Z,100305.57
2019-02-08T13:17:54.571Z,100302.36
2019-02-08T13:20:22.566Z,100301.72
2019-02-08T13:22:53.381Z,100290.11
2019-02-08T13:25:21.310Z,100292.23
2019-02-08T13:27:49.455Z,100287.42
2019-02-08T13:30:25.077Z,100270.66
2019-02-08T13:32:52.981Z,100274.00
2019-02-08T13:35:20.782Z,100276.06
2019-02-08T13:37:48.696Z,100270.95
2019-02-08T13:40:17.974Z,100278.59
2019-02-08T13:42:45.858Z,100280.56
2019-02-08T13:45:14.116Z,100269.50
2019-02-08T13:47:41.934Z,100275.67
2019-02-08T13:50:14.815Z,100275.74
2019-02-08T13:52:42.644Z,100276.33
2019-02-08T13:55:12.381Z,100264.57
2019-02-08T13:57:40.202Z,100264.28
2019-02-08T14:00:14.474Z,100264.59
2019-02-08T14:02:42.728Z,100269.00
2019-02-08T14:05:10.715Z,100257.59
2019-02-08T14:07:38.567Z,100262.04
2019-02-08T14:10:09.461Z,100255.28
2019-02-08T14:12:37.392Z,100251.70
2019-02-08T14:15:06.534Z,100257.37
2019-02-08T14:17:34.339Z,100258.05
2019-02-08T14:20:02.289Z,100262.42
2019-02-08T14:22:30.048Z,100255.91
2019-02-08T14:24:57.811Z,100254.50
2019-02-08T14:27:25.637Z,100252.98
2019-02-08T14:29:53.436Z,100253.61
2019-02-08T14:32:21.273Z,100258.05
2019-02-08T14:34:49.114Z,100251.02
2019-02-08T14:37:16.915Z,100242.77
2019-02-08T14:39:44.756Z,100236.95
2019-02-08T14:42:12.512Z,100229.30
2019-02-08T14:44:40.724Z,100235.73
2019-02-08T14:47:08.703Z,100239.49
2019-02-08T14:49:36.512Z,100226.95
2019-02-08T14:52:04.424Z,100226.12
2019-02-08T14:54:32.267Z,100219.16
2019-02-08T14:57:00.021Z,100221.59
2019-02-08T14:59:27.893Z,100228.34
2019-02-08T15:01:55.683Z,100216.53
2019-02-08T15:04:23.504Z,100223.91
2019-02-08T15:06:51.339Z,100217.63
2019-02-08T15:09:20.169Z,100213.70
2019-02-08T15:11:48.117Z,100208.71
2019-02-08T15:14:15.905Z,100206.34
2019-02-08T15:16:43.713Z,100204.61
2019-02-08T15:19:11.516Z,100212.67
2019-02-08T15:21:39.321Z,100208.34
2019-02-08T15:24:07.126Z,100210.80
2019-02-08T15:26:34.955Z,100211.17
2019-02-08T15:29:02.812Z,100213.42
2019-02-08T15:31:30.676Z,100205.38
2019-02-08T15:33:58.617Z,100201.05
2019-02-08T15:36:26.415Z,100196.63
2019-02-08T15:38:54.280Z,100202.20
2019-02-08T15:41:22.094Z,100195.05
2019-02-08T15:43:50.045Z,100199.64
2019-02-08T15:46:17.989Z,100197.69
2019-02-08T15:48:45.871Z,100202.58
2019-02-08T15:51:13.668Z,100199.25
2019-02-08T15:53:41.502Z,100208.45
2019-02-08T15:56:13.452Z,100209.67
2019-02-08T15:58:41.253Z,100213.52
2019-02-08T16:01:10.739Z,100207.95
2019-02-08T16:03:38.757Z,100210.92
2019-02-08T16:06:06.696Z,100203.89
2019-02-08T16:08:34.500Z,100213.91
2019-02-08T16:11:02.270Z,100209.38
2019-02-08T16:13:30.063Z,100211.53
2019-02-08T16:15:57.817Z,100212.58
2019-02-08T16:18:25.626Z,100195.12
2019-02-08T16:20:53.458Z,100205.66
2019-02-08T16:23:21.275Z,100194.48
2019-02-08T16:25:49.129Z,100189.34
2019-02-08T16:28:16.897Z,100187.99
2019-02-08T16:30:44.660Z,100181.28
2019-02-08T16:33:12.409Z,100180.86
2019-02-08T16:35:40.193Z,100170.42
2019-02-08T16:38:08.250Z,100173.52
2019-02-08T16:40:36.158Z,100170.24
2019-02-08T16:43:04.600Z,100168.58
2019-02-08T16:45:33.570Z,100178.47
2019-02-08T16:48:03.456Z,100180.95
2019-02-08T16:50:31.727Z,100178.89
2019-02-08T16:52:59.710Z,100169.70
2019-02-08T16:55:27.712Z,100169.88
2019-02-08T16:57:55.475Z,100165.02
2019-02-08T17:00:26.609Z,100163.63
2019-02-08T17:02:55.678Z,100160.64
2019-02-08T17:05:24.233Z,100159.06
2019-02-08T17:07:51.979Z,100150.20
2019-02-08T17:10:19.815Z,100143.13
2019-02-08T17:12:47.567Z,100139.77
2019-02-08T17:15:18.901Z,100148.91
2019-02-08T17:17:46.803Z,100145.17
2019-02-08T17:20:30.185Z,100128.33
2019-02-08T17:22:57.978Z,100137.33
2019-02-08T17:25:25.872Z,100122.16
2019-02-08T17:27:55.402Z,100120.48
2019-02-08T17:30:23.965Z,100125.75
2019-02-08T17:32:51.747Z,100122.44
2019-02-08T17:35:20.382Z,100112.00
2019-02-08T17:37:48.164Z,100105.59
2019-02-08T17:40:19.083Z,100110.16
2019-02-08T17:42:46.885Z,100110.58
2019-02-08T17:45:16.520Z,100114.89
2019-02-08T17:47:44.593Z,100106.70
2019-02-08T17:50:15.995Z,100103.22
2019-02-08T17:52:43.777Z,100105.28
2019-02-08T17:55:13.061Z,100097.72
2019-02-08T17:57:40.903Z,100097.30
2019-02-08T18:00:25.017Z,100096.59
2019-02-08T18:02:52.884Z,100091.63
2019-02-08T18:05:20.747Z,100093.27
2019-02-08T18:07:48.578Z,100087.03
2019-02-08T18:10:18.589Z,100087.33
2019-02-08T18:12:46.388Z,100095.09
2019-02-08T18:15:17.763Z,100080.31
2019-02-08T18:17:45.600Z,100084.69
2019-02-08T18:20:18.551Z,100073.06
2019-02-08T18:22:46.322Z,100067.98
2019-02-08T18:25:14.590Z,100064.53
2019-02-08T18:27:42.377Z,100068.73
2019-02-08T18:30:12.446Z,100060.27
2019-02-08T18:32:42.919Z,100059.23
2019-02-08T18:35:10.770Z,100062.93
2019-02-08T18:37:38.610Z,100052.31
2019-02-08T18:40:08.749Z,100043.48
2019-02-08T18:42:36.547Z,100045.27
2019-02-08T18:45:05.880Z,100043.57
2019-02-08T18:47:33.676Z,100043.48
2019-02-08T18:50:01.521Z,100053.15
2019-02-08T18:52:29.560Z,100036.35
2019-02-08T18:54:57.408Z,100040.81
2019-02-08T18:57:25.222Z,100027.50
2019-02-08T18:59:53.033Z,100026.55
2019-02-08T19:02:20.824Z,100022.41
2019-02-08T19:04:48.644Z,100015.20
2019-02-08T19:07:16.475Z,100006.95
2019-02-08T19:09:44.339Z,100005.61
2019-02-08T19:12:12.409Z,100013.16
2019-02-08T19:14:40.194Z,100016.12
2019-02-08T19:17:08.019Z,100006.89
2019-02-08T19:19:35.871Z,100003.06
2019-02-08T19:22:03.979Z,100016.62
2019-02-08T19:24:31.826Z,100004.67
2019-02-08T19:26:59.594Z,100015.26
2019-02-08T19:29:27.514Z,99991.70
2019-02-08T19:31:55.315Z,99987.27
2019-02-08T19:34:23.080Z,99982.33
2019-02-08T19:36:51.000Z,99978.11
2019-02-08T19:39:18.877Z,99977.20
2019-02-08T19:41:46.981Z,99974.53
2019-02-08T19:44:15.027Z,99971.09
2019-02-08T19:46:42.918Z,99969.53
2019-02-08T19:49:10.819Z,99975.09
2019-02-08T19:51:38.896Z,99956.27
2019-02-08T19:54:06.850Z,99958.66
2019-02-08T19:56:34.761Z,99948.88
2019-02-08T19:59:02.795Z,99958.03
2019-02-08T20:01:30.745Z,99954.95
2019-02-08T20:03:58.860Z,99960.16
2019-02-08T20:06:26.808Z,99943.61
2019-02-08T20:08:54.611Z,99941.05
2019-02-08T20:11:22.531Z,99936.83
2019-02-08T20:13:50.438Z,99939.31
2019-02-08T20:16:18.448Z,99933.02
2019-02-08T20:18:46.434Z,99929.66
2019-02-08T20:21:14.756Z,99936.00
2019-02-08T20:23:42.756Z,99904.78
2019-02-08T20:26:10.785Z,99908.00
2019-02-08T20:28:42.485Z,99906.66
2019-02-08T20:31:08.564Z,99904.39
2019-02-08T20:33:36.417Z,99896.58
2019-02-08T20:36:04.672Z,99902.22
2019-02-08T20:38:32.577Z,99907.38
2019-02-08T20:41:01.612Z,99894.28
2019-02-08T20:43:29.588Z,99891.31
2019-02-08T20:45:57.467Z,99886.37
2019-02-08T20:48:25.286Z,99880.59
2019-02-08T20:50:53.202Z,99874.94
2019-02-08T20:53:21.498Z,99889.45
2019-02-08T20:55:49.814Z,99881.84
2019-02-08T20:58:17.783Z,99885.74
2019-02-08T21:00:50.164Z,99871.84
2019-02-08T21:03:18.613Z,99869.38
2019-02-08T21:05:47.883Z,99871.42
2019-02-08T21:08:17.724Z,99858.45
2019-02-08T21:10:45.596Z,99872.77
2019-02-08T21:13:13.896Z,99870.30
2019-02-08T21:15:42.007Z,99860.30
2019-02-08T21:18:10.992Z,99855.78
2019-02-08T21:20:40.595Z,99842.05
2019-02-08T21:23:10.353Z,99857.74
2019-02-08T21:25:38.435Z,99845.78
2019-02-08T21:28:07.008Z,99848.66
2019-02-08T21:30:35.017Z,99843.09
2019-02-08T21:33:04.191Z,99848.33
2019-02-08T21:35:32.099Z,99838.25
2019-02-08T21:38:00.039Z,99836.48
2019-02-08T21:40:27.942Z,99841.33
2019-02-08T21:42:57.281Z,99835.98
2019-02-08T21:45:28.678Z,99826.18
2019-02-08T21:47:56.529Z,99832.05
2019-02-08T21:50:24.506Z,99830.58
2019-02-08T21:52:52.540Z,99829.58
2019-02-08T21:55:20.610Z,99821.33
2019-02-08T21:57:48.414Z,99815.05
2019-02-08T22:00:27.612Z,99801.34
2019-02-08T22:02:56.527Z,99813.72
2019-02-08T22:05:51.977Z,99795.28
2019-02-08T22:08:19.776Z,99798.24
2019-02-08T22:10:47.544Z,99800.50
2019-02-08T22:13:15.328Z,99797.23
2019-02-08T22:15:43.217Z,99788.08
2019-02-08T22:18:11.119Z,99790.34
2019-02-08T22:20:39.215Z,99786.75
2019-02-08T22:23:07.269Z,99791.18
2019-02-08T22:25:35.194Z,99781.27
2019-02-08T22:28:03.131Z,99783.86
2019-02-08T22:30:31.055Z,99771.61
2019-02-08T22:32:59.130Z,99779.30
2019-02-08T22:35:27.161Z,99777.17
2019-02-08T22:37:54.950Z,99778.80
2019-02-08T22:40:22.845Z,99770.14
2019-02-08T22:42:50.738Z,99765.84
2019-02-08T22:45:30.684Z,99766.13
2019-02-08T22:47:58.458Z,99755.55
2019-02-08T22:50:26.370Z,99761.73
2019-02-08T22:52:54.135Z,99749.69
2019-02-08T22:55:24.280Z,99746.38
2019-02-08T22:57:51.997Z,99729.89
2019-02-08T23:01:23.842Z,99736.71
2019-02-08T23:03:53.037Z,99735.58
2019-02-08T23:06:20.794Z,99720.41
2019-02-08T23:08:48.669Z,99707.33
2019-02-08T23:11:16.429Z,99698.89
2019-02-08T23:13:44.199Z,99699.20
2019-02-08T23:16:12.524Z,99699.71
2019-02-08T23:18:40.270Z,99696.43
2019-02-08T23:21:08.127Z,99693.14
2019-02-08T23:23:35.890Z,99686.32
2019-02-08T23:26:04.256Z,99679.73
2019-02-08T23:28:31.984Z,99681.09
2019-02-08T23:30:59.785Z,99675.31
2019-02-08T23:33:27.515Z,99660.88
2019-02-08T23:35:55.323Z,99661.52
2019-02-08T23:38:23.077Z,99654.73
2019-02-08T23:40:50.840Z,99644.85
2019-02-08T23:43:18.689Z,99636.39
2019-02-08T23:45:46.442Z,99644.03
2019-02-08T23:48:14.206Z,99636.53
2019-02-08T23:50:41.977Z,99644.36
2019-02-08T23:53:09.735Z,99634.69
2019-02-08T23:55:37.561Z,99639.20
2019-02-08T23:58:06.459Z,99636.61
